Time;durP1;ratioP1;P1;durP2;ratioP2;P2;SDS_P1;SDS_P2;PMS_P1;PMS_P2;Temp;Humidity;BMP_temperature;BMP_pressure;BME280_temperature;BME280_humidity;BME280_pressure;Samples;Min_cycle;Max_cycle;Signal;HPM_P1;HPM_P2
2022/11/09 07:06:16;;;;;;;8.63;3.20;;;;;;;11.96;97.90;100465.38;5213964;28;20428;-73
2022/11/09 07:08:47;;;;;;;10.35;4.38;;;;;;;11.98;97.78;100471.47;5196921;28;20034;-73
2022/11/09 07:11:18;;;;;;;8.35;3.28;;;;;;;11.95;97.99;100472.09;5193837;28;20101;-73
2022/11/09 07:13:49;;;;;;;7.40;2.50;;;;;;;11.94;97.46;100479.59;5193905;28;20131;-75
2022/11/09 07:16:21;;;;;;;9.98;3.30;;;;;;;11.98;98.01;100478.97;5194075;28;20015;-73
2022/11/09 07:18:52;;;;;;;5.50;2.92;;;;;;;11.97;97.73;100483.72;5193142;28;20031;-73
2022/11/09 07:21:23;;;;;;;6.43;2.33;;;;;;;11.97;97.31;100480.94;5193998;28;20114;-73
2022/11/09 07:23:54;;;;;;;8.60;2.85;;;;;;;12.00;97.64;100491.44;5187250;28;20019;-74
2022/11/09 07:26:29;;;;;;;7.05;3.15;;;;;;;12.07;97.12;100491.84;5175219;28;20440;-73
2022/11/09 07:29:01;;;;;;;7.45;2.95;;;;;;;12.02;97.77;100491.97;5235198;23;20058;-74
2022/11/09 07:31:33;;;;;;;10.45;3.13;;;;;;;12.02;97.12;100502.25;5181266;28;20462;-74
2022/11/09 07:34:04;;;;;;;7.55;3.00;;;;;;;12.05;97.46;100496.09;5187394;28;20113;-74
2022/11/09 07:36:38;;;;;;;8.07;3.65;;;;;;;12.10;96.99;100504.31;5173938;28;20089;-73
2022/11/09 07:39:09;;;;;;;11.43;2.65;;;;;;;12.09;96.63;100492.38;5173774;28;20483;-73
2022/11/09 07:41:48;;;;;;;8.27;2.58;;;;;;;12.08;97.01;100496.28;5177476;28;20023;-73
2022/11/09 07:44:20;;;;;;;7.15;2.40;;;;;;;12.08;96.52;100495.47;5176408;28;20382;-73
2022/11/09 07:46:51;;;;;;;7.22;2.70;;;;;;;12.09;96.57;100489.59;5172472;28;20027;-73
2022/11/09 07:49:22;;;;;;;7.90;2.60;;;;;;;12.14;96.77;100495.06;5173022;28;20035;-73
2022/11/09 07:51:53;;;;;;;7.32;2.60;;;;;;;12.11;96.06;100495.66;5173294;28;20059;-71
2022/11/09 07:54:25;;;;;;;12.35;2.50;;;;;;;12.16;96.62;100501.09;5172241;28;20113;-74
2022/11/09 07:56:56;;;;;;;7.10;2.50;;;;;;;12.15;95.77;100505.03;5173465;28;20027;-74
2022/11/09 07:59:28;;;;;;;19.55;14.77;;;;;;;12.14;96.18;100506.19;5173076;28;20474;-74
2022/11/09 08:01:59;;;;;;;9.70;3.67;;;;;;;12.23;96.54;100506.28;5173073;28;20442;-73
2022/11/09 08:04:30;;;;;;;9.02;2.60;;;;;;;12.22;96.05;100517.69;5173249;28;20027;-74
2022/11/09 08:07:02;;;;;;;10.32;2.53;;;;;;;12.23;95.25;100508.22;5173549;28;20109;-73
2022/11/09 08:09:33;;;;;;;7.43;2.60;;;;;;;12.24;95.88;100509.88;5172733;28;20114;-73
2022/11/09 08:12:04;;;;;;;6.22;2.47;;;;;;;12.24;95.73;100515.44;5173319;28;20027;-74
2022/11/09 08:14:36;;;;;;;9.25;2.95;;;;;;;12.28;96.04;100517.28;5172240;28;20035;-73
2022/11/09 08:17:07;;;;;;;5.35;2.40;;;;;;;12.24;95.53;100521.81;5162090;28;20058;-73
2022/11/09 08:19:38;;;;;;;7.25;3.35;;;;;;;12.24;95.26;100523.78;5157868;28;20027;-73
2022/11/09 08:22:09;;;;;;;7.05;2.28;;;;;;;12.26;96.00;100521.50;5158828;28;20020;-73
2022/11/09 08:24:41;;;;;;;9.80;2.70;;;;;;;12.27;95.55;100525.94;5159356;28;20049;-73
2022/11/09 08:27:12;;;;;;;7.45;3.42;;;;;;;12.34;95.40;100537.47;5159345;28;20081;-73
2022/11/09 08:29:44;;;;;;;10.70;4.25;;;;;;;12.34;94.99;100540.25;5158586;28;20065;-73
2022/11/09 08:32:15;;;;;;;10.98;2.75;;;;;;;12.35;94.53;100533.56;5158996;28;20097;-69
2022/11/09 08:34:47;;;;;;;4.50;2.15;;;;;;;12.37;94.28;100546.03;5159095;28;20020;-72
2022/11/09 08:37:18;;;;;;;8.27;2.75;;;;;;;12.38;94.58;100542.09;5158300;28;20437;-73
2022/11/09 08:39:50;;;;;;;9.88;3.38;;;;;;;12.38;94.30;100547.66;5159262;28;20051;-73
2022/11/09 08:42:21;;;;;;;7.13;2.80;;;;;;;12.37;93.83;100554.38;5159011;28;20089;-73
2022/11/09 08:44:52;;;;;;;8.00;2.42;;;;;;;12.38;93.88;100546.84;5158091;28;20370;-72
2022/11/09 08:47:27;;;;;;;5.40;2.33;;;;;;;12.44;94.24;100547.56;5158848;28;20027;-76
2022/11/09 08:50:03;;;;;;;12.77;2.50;;;;;;;12.47;93.59;100544.16;5158318;28;20031;-75
2022/11/09 08:52:34;;;;;;;7.07;2.40;;;;;;;12.48;93.63;100543.88;5159487;28;20034;-76
2022/11/09 08:55:06;;;;;;;7.05;2.40;;;;;;;12.52;93.28;100558.78;5159415;28;20020;-75
2022/11/09 08:57:37;;;;;;;14.73;9.85;;;;;;;12.52;93.22;100547.66;5158900;28;20038;-76
2022/11/09 09:00:10;;;;;;;8.57;3.03;;;;;;;12.64;93.09;100543.53;5175614;28;20030;-74
2022/11/09 09:02:42;;;;;;;11.57;2.97;;;;;;;12.61;92.49;100559.72;5179351;28;20034;-75
2022/11/09 09:05:14;;;;;;;8.23;2.42;;;;;;;12.60;92.11;100558.06;5176478;28;20087;-73
2022/11/09 09:07:45;;;;;;;11.82;7.07;;;;;;;12.76;92.19;100560.53;5158789;28;20410;-72
2022/11/09 09:10:16;;;;;;;12.38;6.15;;;;;;;12.75;91.41;100554.13;5154676;28;20024;-73
2022/11/09 09:12:48;;;;;;;7.47;2.80;;;;;;;12.74;91.48;100551.66;5157846;28;20054;-72
2022/11/09 09:15:23;;;;;;;5.30;2.40;;;;;;;12.74;90.56;100558.06;5157877;28;20453;-74
2022/11/09 09:17:54;;;;;;;7.43;2.70;;;;;;;12.78;90.42;100552.66;5157949;28;20077;-73
2022/11/09 09:20:26;;;;;;;7.43;2.30;;;;;;;12.75;89.81;100556.91;5157534;28;20031;-72
2022/11/09 09:22:59;;;;;;;7.95;2.80;;;;;;;12.77;90.13;100557.41;5175160;28;20042;-71
2022/11/09 09:25:30;;;;;;;8.63;2.92;;;;;;;12.77;89.09;100562.16;5162392;28;20392;-71
2022/11/09 09:28:02;;;;;;;5.68;2.83;;;;;;;12.90;90.84;100564.09;5147840;28;20055;-71
2022/11/09 09:30:33;;;;;;;6.97;2.58;;;;;;;12.96;89.90;100564.81;5158117;28;20050;-71
2022/11/09 09:33:04;;;;;;;8.27;3.47;;;;;;;12.89;88.98;100564.44;5157281;28;20034;-71
2022/11/09 09:35:36;;;;;;;9.35;2.45;;;;;;;13.08;90.23;100567.06;5157970;28;20039;-73
2022/11/09 09:38:07;;;;;;;6.20;2.50;;;;;;;12.97;88.65;100577.59;5160930;28;20031;-73
2022/11/09 09:41:00;;;;;;;6.97;2.33;;;;;;;13.01;88.90;100561.91;5156457;28;20032;-74
2022/11/09 09:43:43;;;;;;;8.45;2.40;;;;;;;12.96;87.96;100565.66;5156202;28;20027;-73
2022/11/09 09:46:24;;;;;;;10.77;3.38;;;;;;;12.96;87.91;100565.66;5151072;29;20027;-72
2022/11/09 09:49:02;;;;;;;7.20;2.38;;;;;;;13.13;87.95;100575.28;5158329;28;20031;-73
2022/11/09 09:51:56;;;;;;;7.10;2.17;;;;;;;13.10;87.55;100582.31;5157715;28;20027;-74
2022/11/09 09:54:38;;;;;;;7.00;2.67;;;;;;;13.14;86.54;100585.28;5156684;28;20035;-73
2022/11/09 09:57:17;;;;;;;6.30;2.50;;;;;;;13.19;86.38;100585.16;5137112;28;20079;-73
2022/11/09 09:59:52;;;;;;;8.10;2.80;;;;;;;13.24;85.95;100593.41;5155322;28;20160;-73
2022/11/09 10:02:25;;;;;;;6.82;2.35;;;;;;;13.22;84.80;100592.91;5156070;28;20513;-73
2022/11/09 10:04:59;;;;;;;7.00;2.10;;;;;;;13.24;84.75;100601.75;5165331;28;20049;-73
2022/11/09 10:07:45;;;;;;;7.00;2.70;;;;;;;13.27;84.91;100598.41;5172849;28;20054;-73
2022/11/09 10:10:44;;;;;;;7.18;2.30;;;;;;;13.32;84.46;100603.84;5157244;28;20042;-75
2022/11/09 10:13:34;;;;;;;7.00;2.92;;;;;;;13.39;84.59;100604.22;5157648;28;20031;-76
2022/11/09 10:16:26;;;;;;;8.27;2.30;;;;;;;13.41;83.66;100599.16;5156759;28;20035;-76
2022/11/09 10:19:25;;;;;;;7.53;2.58;;;;;;;13.38;82.96;100601.75;5157672;28;20046;-76
2022/11/09 10:22:05;;;;;;;5.03;2.15;;;;;;;13.46;83.38;100601.81;5157004;28;20339;-76
2022/11/09 10:25:00;;;;;;;7.90;2.92;;;;;;;13.42;82.28;100598.03;5157675;28;20074;-76
2022/11/09 10:27:39;;;;;;;7.13;3.03;;;;;;;13.45;81.59;100599.38;5157126;28;20047;-77
2022/11/09 10:30:17;;;;;;;7.22;2.67;;;;;;;13.43;81.40;100605.25;5157156;28;20053;-77
2022/11/09 10:32:56;;;;;;;6.13;2.50;;;;;;;13.48;80.87;100607.91;5157555;28;20061;-76
2022/11/09 10:35:36;;;;;;;5.55;2.00;;;;;;;13.48;80.01;100610.69;5156942;28;20034;-77
2022/11/09 10:38:14;;;;;;;6.22;2.45;;;;;;;13.47;80.52;100611.00;5157194;28;20050;-77
2022/11/09 10:41:02;;;;;;;9.68;2.40;;;;;;;13.54;80.72;100607.78;5157231;28;20033;-76
2022/11/09 10:43:33;;;;;;;9.70;2.70;;;;;;;13.55;79.97;100610.28;5157184;28;20029;-77
2022/11/09 10:46:09;;;;;;;7.60;2.17;;;;;;;13.61;80.16;100630.47;5157193;28;20035;-77
2022/11/09 10:48:40;;;;;;;;;;;;;;;13.64;79.51;100624.25;5158214;28;20122;-78
2022/11/09 10:51:39;;;;;;;11.95;2.33;;;;;;;13.67;79.87;100623.63;5156390;28;20004;-77
2022/11/09 10:54:17;;;;;;;6.95;3.08;;;;;;;13.66;80.16;100635.91;5157239;28;20114;-77
2022/11/09 10:57:14;;;;;;;8.73;2.17;;;;;;;13.68;79.96;100619.72;5151037;28;20081;-77
2022/11/09 10:59:56;;;;;;;9.50;2.97;;;;;;;13.59;79.48;100622.41;5157291;28;20028;-77
2022/11/09 11:02:40;;;;;;;7.55;2.47;;;;;;;13.58;79.23;100642.25;5157132;28;20157;-77
2022/11/09 11:05:17;;;;;;;8.30;2.42;;;;;;;13.60;79.45;100638.00;5156102;28;20035;-77
2022/11/09 11:07:48;;;;;;;5.05;2.08;;;;;;;13.57;79.22;100623.88;5137265;29;20034;-76
2022/11/09 11:10:22;;;;;;;7.72;2.17;;;;;;;13.60;79.45;100629.66;5160502;28;20031;-76
2022/11/09 11:13:18;;;;;;;7.93;2.50;;;;;;;13.62;78.72;100637.69;5174444;28;20034;-77
2022/11/09 11:15:50;;;;;;;11.48;3.38;;;;;;;13.52;79.05;100635.94;5157373;28;20039;-77
2022/11/09 11:18:24;;;;;;;5.82;2.35;;;;;;;13.55;79.13;100638.13;5156586;28;20051;-74
2022/11/09 11:21:17;;;;;;;10.18;2.75;;;;;;;13.56;80.15;100638.94;5157361;28;20221;-78
2022/11/09 11:24:17;;;;;;;10.30;4.22;;;;;;;13.56;79.92;100641.75;5156589;28;20031;-79
2022/11/09 11:27:05;;;;;;;8.10;3.25;;;;;;;13.58;79.59;100643.06;5155332;28;20032;-76
2022/11/09 11:29:45;;;;;;;8.63;2.97;;;;;;;13.54;79.50;100639.25;5154658;28;20039;-78
2022/11/09 11:32:18;;;;;;;7.60;2.65;;;;;;;13.57;78.95;100651.72;5156016;28;20027;-79
2022/11/09 11:34:50;;;;;;;19.92;16.17;;;;;;;13.54;78.43;100635.66;5156712;28;20024;-78
2022/11/09 11:37:45;;;;;;;7.25;2.47;;;;;;;13.55;77.82;100640.91;5156530;28;20536;-79
2022/11/09 11:40:39;;;;;;;5.47;2.13;;;;;;;13.52;78.02;100644.31;5145069;29;20516;-78
2022/11/09 11:43:32;;;;;;;7.45;2.20;;;;;;;13.52;78.10;100651.84;5156315;28;20039;-78
2022/11/09 11:46:21;;;;;;;4.30;1.90;;;;;;;13.57;77.69;100635.00;5155913;28;20385;-73
2022/11/09 11:49:35;;;;;;;6.72;2.28;;;;;;;13.60;77.60;100646.38;5156010;28;20070;-75
2022/11/09 11:52:18;;;;;;;9.18;2.58;;;;;;;13.62;77.23;100644.06;5158897;28;20042;-77
2022/11/09 11:55:18;;;;;;;4.20;1.95;;;;;;;13.69;76.11;100638.06;5158781;28;20496;-77
2022/11/09 11:58:11;;;;;;;6.50;2.20;;;;;;;13.72;75.39;100637.44;5159066;28;20031;-76
2022/11/09 12:00:58;;;;;;;7.05;2.30;;;;;;;13.84;75.90;100639.66;5156240;29;20093;-73
2022/11/09 12:03:45;;;;;;;6.10;1.83;;;;;;;13.84;74.93;100640.47;5159435;28;20096;-74
2022/11/09 12:06:49;;;;;;;8.02;2.35;;;;;;;13.85;74.56;100639.31;5173322;28;20062;-74
2022/11/09 12:09:37;;;;;;;7.03;2.20;;;;;;;13.83;74.93;100643.56;5159534;28;20094;-75
2022/11/09 12:12:45;;;;;;;6.50;2.10;;;;;;;13.96;74.92;100650.22;5159768;28;20027;-74
2022/11/09 12:15:54;;;;;;;6.38;2.72;;;;;;;14.02;74.51;100651.75;5158714;28;20027;-74
2022/11/09 12:18:38;;;;;;;8.25;2.72;;;;;;;13.99;74.59;100655.19;5161858;28;20035;-75
2022/11/09 12:21:46;;;;;;;6.70;2.22;;;;;;;13.97;74.49;100649.09;5158027;28;20035;-73
2022/11/09 12:24:30;;;;;;;5.00;2.03;;;;;;;13.97;75.19;100640.75;5167586;28;20138;-77
2022/11/09 12:27:17;;;;;;;5.28;1.83;;;;;;;14.00;74.88;100648.47;5159083;28;20114;-75
2022/11/09 12:30:20;;;;;;;7.90;2.55;;;;;;;13.92;74.99;100645.28;5149079;28;20070;-70
2022/11/09 12:32:55;;;;;;;5.65;2.25;;;;;;;13.82;75.84;100641.94;5139712;28;20036;-69
2022/11/09 12:35:40;;;;;;;7.07;2.33;;;;;;;13.85;76.97;100647.69;5150515;28;20024;-72
2022/11/09 12:38:31;;;;;;;5.28;2.25;;;;;;;13.85;75.90;100653.25;5170737;28;20038;-73
2022/11/09 12:41:32;;;;;;;5.00;1.77;;;;;;;13.91;77.21;100649.22;5157900;28;20107;-75
2022/11/09 12:44:08;;;;;;;4.18;1.77;;;;;;;13.92;75.82;100664.81;5157530;29;20047;-74
2022/11/09 12:47:01;;;;;;;5.82;2.65;;;;;;;14.03;75.54;100670.13;5158865;28;20072;-74
2022/11/09 12:49:38;;;;;;;7.40;2.40;;;;;;;14.01;74.88;100664.88;5158511;28;20035;-74
2022/11/09 12:52:14;;;;;;;8.25;2.28;;;;;;;14.04;74.51;100660.63;5158978;28;20034;-74
2022/11/09 12:54:47;;;;;;;4.43;1.73;;;;;;;14.16;74.54;100658.06;5158941;28;20035;-74
2022/11/09 12:57:25;;;;;;;5.47;2.67;;;;;;;14.20;74.58;100656.31;5158206;28;20046;-75
2022/11/09 12:59:59;;;;;;;8.30;2.90;;;;;;;14.14;72.85;100668.75;5159093;28;20032;-73
2022/11/09 13:02:35;;;;;;;7.18;1.95;;;;;;;14.10;72.31;100676.91;5158481;28;20421;-74
2022/11/09 13:05:28;;;;;;;5.28;1.70;;;;;;;14.14;72.53;100666.78;5159661;28;20038;-74
2022/11/09 13:08:01;;;;;;;5.22;1.60;;;;;;;14.13;71.97;100664.28;5158081;28;20069;-74
2022/11/09 13:10:37;;;;;;;6.93;2.05;;;;;;;14.22;72.92;100673.56;5158474;28;20027;-71
2022/11/09 13:13:14;;;;;;;6.90;2.47;;;;;;;14.20;72.81;100669.44;5156939;28;20034;-73
2022/11/09 13:16:09;;;;;;;6.30;1.58;;;;;;;14.10;72.62;100670.50;5158595;28;20127;-72
2022/11/09 13:18:40;;;;;;;4.53;2.15;;;;;;;14.05;72.41;100684.59;5156967;28;20030;-72
2022/11/09 13:21:20;;;;;;;3.53;2.10;;;;;;;14.08;72.78;100681.97;5158490;28;20031;-69
2022/11/09 13:23:52;;;;;;;6.43;2.92;;;;;;;14.06;72.76;100684.28;5152098;28;20030;-73
2022/11/09 13:26:30;;;;;;;4.25;2.05;;;;;;;14.06;72.87;100695.44;5175149;28;20476;-73
2022/11/09 13:29:26;;;;;;;6.18;1.65;;;;;;;14.04;73.17;100694.91;5176760;28;20100;-70
2022/11/09 13:31:59;;;;;;;4.70;2.83;;;;;;;14.13;73.07;100695.78;5157555;28;20129;-71
2022/11/09 13:34:48;;;;;;;4.57;2.13;;;;;;;14.22;72.94;100690.28;5158097;28;20035;-73
2022/11/09 13:37:41;;;;;;;6.45;2.08;;;;;;;14.33;72.73;100697.25;5164860;28;20404;-72
2022/11/09 13:40:30;;;;;;;10.13;6.78;;;;;;;14.36;72.64;100693.81;5160516;28;20133;-72
2022/11/09 13:43:09;;;;;;;7.05;4.18;;;;;;;14.32;72.68;100701.19;5158207;28;20031;-72
2022/11/09 13:45:50;;;;;;;5.82;1.90;;;;;;;14.28;73.10;100708.53;5156499;28;20023;-70
2022/11/09 13:48:55;;;;;;;6.07;2.15;;;;;;;14.17;73.03;100715.50;5147625;29;20501;-71
2022/11/09 13:51:35;;;;;;;9.25;3.22;;;;;;;14.29;72.82;100715.78;5156464;28;20428;-71
2022/11/09 13:54:30;;;;;;;6.07;1.77;;;;;;;14.37;72.41;100708.59;5156970;28;20031;-72
2022/11/09 13:57:05;;;;;;;7.57;3.13;;;;;;;14.41;72.52;100708.78;5154636;28;20042;-72
2022/11/09 13:59:48;;;;;;;7.75;2.33;;;;;;;14.50;72.53;100718.03;5137509;28;20107;-72
2022/11/09 14:02:22;;;;;;;5.20;1.80;;;;;;;14.67;72.53;100712.56;5153624;29;20036;-72
2022/11/09 14:04:53;;;;;;;5.70;1.80;;;;;;;14.52;71.95;100712.94;5165797;28;20027;-73
2022/11/09 14:07:37;;;;;;;6.55;2.15;;;;;;;14.46;72.64;100722.59;5177343;28;20050;-72
2022/11/09 14:10:17;;;;;;;3.83;1.73;;;;;;;14.34;72.90;100725.94;5177381;28;20022;-73
2022/11/09 14:13:18;;;;;;;6.75;2.28;;;;;;;14.38;72.67;100726.16;5171987;28;20054;-74
2022/11/09 14:16:08;;;;;;;5.50;1.83;;;;;;;14.46;71.73;100728.16;5156868;28;20027;-75
2022/11/09 14:19:02;;;;;;;4.60;1.60;;;;;;;14.39;72.00;100733.38;5157495;28;20434;-75
2022/11/09 14:21:49;;;;;;;7.60;2.10;;;;;;;14.27;72.30;100743.16;5145104;29;20098;-74
2022/11/09 14:24:25;;;;;;;4.82;2.33;;;;;;;14.28;73.59;100750.38;5137434;29;20035;-73
2022/11/09 14:27:09;;;;;;;5.20;1.45;;;;;;;14.25;75.16;100747.41;5141460;29;20085;-74
2022/11/09 14:29:53;;;;;;;3.17;1.98;;;;;;;14.26;73.35;100754.63;5157395;28;20387;-73
2022/11/09 14:32:27;;;;;;;6.63;2.05;;;;;;;14.22;73.40;100751.66;5157278;28;20031;-73
2022/11/09 14:35:22;;;;;;;3.78;1.98;;;;;;;14.18;73.71;100756.19;5156553;28;20035;-73
2022/11/09 14:37:56;;;;;;;5.60;2.25;;;;;;;14.20;76.04;100751.13;5157333;28;20072;-75
2022/11/09 14:40:30;;;;;;;6.97;2.58;;;;;;;14.01;74.24;100754.09;5156994;28;20105;-74
2022/11/09 14:43:20;;;;;;;3.95;1.40;;;;;;;14.05;77.06;100774.63;5156643;28;20038;-75
2022/11/09 14:45:54;;;;;;;6.80;2.03;;;;;;;13.98;74.62;100773.41;5157091;28;20031;-75
2022/11/09 14:48:27;;;;;;;4.28;1.75;;;;;;;13.89;74.90;100768.59;5156140;28;20060;-72
2022/11/09 14:51:03;;;;;;;7.25;2.50;;;;;;;13.82;76.09;100773.75;5157542;28;20031;-74
2022/11/09 14:53:36;;;;;;;5.88;2.05;;;;;;;13.80;76.27;100770.47;5156979;28;20031;-74
2022/11/09 14:56:12;;;;;;;3.95;1.55;;;;;;;13.78;76.27;100774.69;5156382;28;20031;-76
2022/11/09 14:58:45;;;;;;;5.47;2.20;;;;;;;13.77;76.63;100771.09;5156999;28;20437;-81
2022/11/09 15:01:16;;;;;;;4.72;1.92;;;;;;;13.76;76.85;100780.59;5157690;28;20142;-75
2022/11/09 15:04:10;;;;;;;3.05;1.45;;;;;;;13.72;77.78;100795.47;5156904;28;20102;-73
2022/11/09 15:07:02;;;;;;;6.10;2.03;;;;;;;13.72;77.75;100795.47;5156859;28;20027;-75
2022/11/09 15:09:43;;;;;;;4.78;1.60;;;;;;;13.74;77.85;100794.03;5157983;28;20035;-75
2022/11/09 15:12:19;;;;;;;6.32;1.80;;;;;;;13.67;77.92;100793.63;5158244;28;20030;-74
2022/11/09 15:15:03;;;;;;;5.22;2.33;;;;;;;13.62;78.25;100802.09;5158465;28;20038;-75
2022/11/09 15:17:36;;;;;;;6.30;2.67;;;;;;;13.55;78.40;100810.88;5158409;28;20103;-76
2022/11/09 15:20:08;;;;;;;6.07;2.72;;;;;;;13.51;78.70;100798.69;5159763;28;20027;-76
2022/11/09 15:22:39;;;;;;;4.10;2.00;;;;;;;13.56;78.37;100800.56;5156678;28;20077;-76
2022/11/09 15:25:24;;;;;;;6.43;1.67;;;;;;;13.51;79.19;100809.00;5156073;28;20112;-74
2022/11/09 15:28:07;;;;;;;7.13;1.80;;;;;;;13.48;79.63;100805.72;5159684;28;20055;-76
2022/11/09 15:30:45;;;;;;;8.57;3.08;;;;;;;13.44;79.38;100813.03;5160483;28;20118;-79
2022/11/09 15:33:16;;;;;;;5.45;2.35;;;;;;;13.38;79.18;100817.06;5160660;28;20019;-79
2022/11/09 15:35:55;;;;;;;4.00;1.88;;;;;;;13.46;79.29;100819.13;5160265;28;20031;-79
2022/11/09 15:38:37;;;;;;;9.85;2.10;;;;;;;13.42;79.67;100823.69;5159562;28;20030;-80
2022/11/09 15:41:18;;;;;;;5.60;2.15;;;;;;;13.39;79.58;100821.47;5159595;29;20027;-78
2022/11/09 15:43:50;;;;;;;6.97;2.00;;;;;;;13.32;79.75;100821.09;5166784;28;20474;-79
2022/11/09 15:46:33;;;;;;;4.63;2.00;;;;;;;13.33;79.69;100831.09;5180082;28;20042;-80
2022/11/09 15:49:19;;;;;;;7.20;2.80;;;;;;;13.36;80.39;100835.22;5180858;28;20022;-81
2022/11/09 15:51:52;;;;;;;13.05;2.83;;;;;;;13.31;80.49;100835.31;5162482;28;20039;-83
2022/11/09 15:54:24;;;;;;;4.95;2.28;;;;;;;13.27;81.36;100835.13;5160649;28;20088;-82
2022/11/09 15:56:55;;;;;;;6.28;2.33;;;;;;;13.26;80.65;100850.97;5160254;29;20031;-79
2022/11/09 15:59:26;;;;;;;6.05;2.25;;;;;;;13.19;80.64;100855.28;5166044;28;20177;-76
2022/11/09 16:01:58;;;;;;;6.95;2.40;;;;;;;13.19;80.51;100858.91;5158386;28;20486;-78
2022/11/09 16:04:29;;;;;;;8.70;2.60;;;;;;;13.18;80.79;100861.97;5159578;28;20384;-77
2022/11/09 16:07:00;;;;;;;6.55;2.20;;;;;;;13.17;81.13;100855.59;5159098;28;20108;-77
2022/11/09 16:09:32;;;;;;;6.72;2.55;;;;;;;13.12;81.06;100864.03;5162338;28;20109;-78
2022/11/09 16:12:03;;;;;;;8.93;2.97;;;;;;;13.16;81.18;100864.25;5159742;28;20039;-78
2022/11/09 16:14:34;;;;;;;6.78;2.65;;;;;;;13.18;81.30;100868.38;5158960;28;20051;-77
2022/11/09 16:17:06;;;;;;;4.78;2.13;;;;;;;13.12;81.42;100869.59;5159504;28;20035;-77
2022/11/09 16:19:38;;;;;;;5.80;2.53;;;;;;;13.15;81.18;100880.13;5159619;28;20032;-79
2022/11/09 16:22:10;;;;;;;6.70;2.20;;;;;;;13.12;81.55;100879.94;5173496;28;20093;-69
2022/11/09 16:24:45;;;;;;;6.55;2.22;;;;;;;13.13;81.27;100885.16;5158511;28;20039;-74
2022/11/09 16:27:18;;;;;;;4.63;2.83;;;;;;;13.17;81.17;100882.63;5157900;28;20360;-82
2022/11/09 16:29:49;;;;;;;5.68;2.95;;;;;;;13.18;82.54;100889.84;5159193;28;20483;-76
2022/11/09 16:32:26;;;;;;;8.75;2.50;;;;;;;13.32;84.43;100899.09;5158994;28;20042;-75
2022/11/09 16:34:58;;;;;;;18.20;12.18;;;;;;;13.44;83.73;100902.16;5159224;28;20415;-77
2022/11/09 16:37:33;;;;;;;6.07;2.50;;;;;;;13.22;81.90;100902.84;5166888;28;20041;-78
